sensor_id;sensor_type;location;lat;lon;timestamp;temperature;humidity
76168;DHT22;64927;48.214;16.378;2023-09-19T00:00:31;22.80;55.50
76168;DHT22;64927;48.214;16.378;2023-09-19T00:02:59;22.70;56.70
76168;DHT22;64927;48.214;16.378;2023-09-19T00:05:28;22.60;57.50
76168;DHT22;64927;48.214;16.378;2023-09-19T00:07:57;22.40;58.40
76168;DHT22;64927;48.214;16.378;2023-09-19T00:10:32;22.40;58.90
76168;DHT22;64927;48.214;16.378;2023-09-19T00:13:01;22.40;59.20
76168;DHT22;64927;48.214;16.378;2023-09-19T00:15:36;22.20;59.80
76168;DHT22;64927;48.214;16.378;2023-09-19T00:18:03;22.10;59.90
76168;DHT22;64927;48.214;16.378;2023-09-19T00:20:30;22.00;61.70
76168;DHT22;64927;48.214;16.378;2023-09-19T00:22:55;21.90;62.30
76168;DHT22;64927;48.214;16.378;2023-09-19T00:25:23;21.70;63.20
76168;DHT22;64927;48.214;16.378;2023-09-19T00:27:54;21.60;64.30
76168;DHT22;64927;48.214;16.378;2023-09-19T00:30:20;21.40;66.10
76168;DHT22;64927;48.214;16.378;2023-09-19T00:32:47;21.20;66.90
76168;DHT22;64927;48.214;16.378;2023-09-19T00:35:16;20.90;68.40
76168;DHT22;64927;48.214;16.378;2023-09-19T00:37:42;20.70;69.60
76168;DHT22;64927;48.214;16.378;2023-09-19T00:40:11;20.50;70.70
76168;DHT22;64927;48.214;16.378;2023-09-19T00:42:41;20.40;72.30
76168;DHT22;64927;48.214;16.378;2023-09-19T00:45:10;20.30;73.20
76168;DHT22;64927;48.214;16.378;2023-09-19T00:47:48;20.20;73.00
76168;DHT22;64927;48.214;16.378;2023-09-19T00:50:19;20.20;72.90
76168;DHT22;64927;48.214;16.378;2023-09-19T00:52:53;20.10;72.90
76168;DHT22;64927;48.214;16.378;2023-09-19T00:55:21;20.10;73.20
76168;DHT22;64927;48.214;16.378;2023-09-19T00:57:51;20.10;73.30
76168;DHT22;64927;48.214;16.378;2023-09-19T01:00:18;20.10;72.90
76168;DHT22;64927;48.214;16.378;2023-09-19T01:02:49;20.00;73.70
76168;DHT22;64927;48.214;16.378;2023-09-19T01:05:15;20.00;73.70
76168;DHT22;64927;48.214;16.378;2023-09-19T01:07:41;20.00;72.00
76168;DHT22;64927;48.214;16.378;2023-09-19T01:10:12;20.00;72.10
76168;DHT22;64927;48.214;16.378;2023-09-19T01:26:30;19.90;72.60
76168;DHT22;64927;48.214;16.378;2023-09-19T01:31:45;19.90;73.10
76168;DHT22;64927;48.214;16.378;2023-09-19T01:34:12;19.90;72.30
76168;DHT22;64927;48.214;16.378;2023-09-19T01:36:38;19.90;72.20
76168;DHT22;64927;48.214;16.378;2023-09-19T01:39:09;19.90;72.30
76168;DHT22;64927;48.214;16.378;2023-09-19T01:42:04;19.80;72.60
76168;DHT22;64927;48.214;16.378;2023-09-19T01:44:59;19.80;73.10
76168;DHT22;64927;48.214;16.378;2023-09-19T01:47:38;19.80;73.30
76168;DHT22;64927;48.214;16.378;2023-09-19T01:52:46;19.50;73.80
76168;DHT22;64927;48.214;16.378;2023-09-19T01:55:15;19.50;75.60
76168;DHT22;64927;48.214;16.378;2023-09-19T01:57:54;19.50;75.50
76168;DHT22;64927;48.214;16.378;2023-09-19T02:00:23;19.40;75.90
76168;DHT22;64927;48.214;16.378;2023-09-19T02:02:50;19.30;75.80
76168;DHT22;64927;48.214;16.378;2023-09-19T02:05:26;19.30;75.20
76168;DHT22;64927;48.214;16.378;2023-09-19T02:07:55;19.20;75.00
76168;DHT22;64927;48.214;16.378;2023-09-19T02:10:22;19.10;76.50
76168;DHT22;64927;48.214;16.378;2023-09-19T02:12:49;19.00;77.70
76168;DHT22;64927;48.214;16.378;2023-09-19T02:15:15;19.00;77.50
76168;DHT22;64927;48.214;16.378;2023-09-19T02:17:42;18.90;77.90
76168;DHT22;64927;48.214;16.378;2023-09-19T02:20:10;18.90;78.80
76168;DHT22;64927;48.214;16.378;2023-09-19T02:22:36;18.90;77.60
76168;DHT22;64927;48.214;16.378;2023-09-19T02:25:04;19.00;78.40
76168;DHT22;64927;48.214;16.378;2023-09-19T02:27:33;19.00;78.30
76168;DHT22;64927;48.214;16.378;2023-09-19T02:29:58;19.00;78.30
76168;DHT22;64927;48.214;16.378;2023-09-19T02:32:24;19.10;78.90
76168;DHT22;64927;48.214;16.378;2023-09-19T02:34:50;19.10;78.30
76168;DHT22;64927;48.214;16.378;2023-09-19T02:37:17;19.10;78.40
76168;DHT22;64927;48.214;16.378;2023-09-19T02:39:44;19.10;78.90
76168;DHT22;64927;48.214;16.378;2023-09-19T02:42:10;19.10;78.90
76168;DHT22;64927;48.214;16.378;2023-09-19T02:44:38;19.20;78.90
76168;DHT22;64927;48.214;16.378;2023-09-19T02:47:04;19.10;79.40
76168;DHT22;64927;48.214;16.378;2023-09-19T02:49:31;19.20;78.30
76168;DHT22;64927;48.214;16.378;2023-09-19T02:52:00;19.20;77.80
76168;DHT22;64927;48.214;16.378;2023-09-19T02:54:26;19.20;77.40
76168;DHT22;64927;48.214;16.378;2023-09-19T02:56:51;19.30;76.70
76168;DHT22;64927;48.214;16.378;2023-09-19T02:59:19;19.40;76.70
76168;DHT22;64927;48.214;16.378;2023-09-19T03:01:47;19.50;76.20
76168;DHT22;64927;48.214;16.378;2023-09-19T03:04:16;19.70;76.60
76168;DHT22;64927;48.214;16.378;2023-09-19T03:06:48;19.70;75.10
76168;DHT22;64927;48.214;16.378;2023-09-19T03:09:16;19.70;75.30
76168;DHT22;64927;48.214;16.378;2023-09-19T03:11:42;19.60;75.10
76168;DHT22;64927;48.214;16.378;2023-09-19T03:14:09;19.70;75.50
76168;DHT22;64927;48.214;16.378;2023-09-19T03:16:36;19.70;74.90
76168;DHT22;64927;48.214;16.378;2023-09-19T03:19:03;19.70;75.20
76168;DHT22;64927;48.214;16.378;2023-09-19T03:21:32;19.70;75.10
76168;DHT22;64927;48.214;16.378;2023-09-19T03:24:00;19.70;74.80
76168;DHT22;64927;48.214;16.378;2023-09-19T03:26:26;19.70;75.00
76168;DHT22;64927;48.214;16.378;2023-09-19T03:28:51;19.70;74.30
76168;DHT22;64927;48.214;16.378;2023-09-19T03:31:17;19.70;74.80
76168;DHT22;64927;48.214;16.378;2023-09-19T03:33:45;19.80;73.90
76168;DHT22;64927;48.214;16.378;2023-09-19T03:36:10;20.00;74.20
76168;DHT22;64927;48.214;16.378;2023-09-19T03:38:38;20.00;73.40
76168;DHT22;64927;48.214;16.378;2023-09-19T03:41:06;19.90;74.20
76168;DHT22;64927;48.214;16.378;2023-09-19T03:43:32;19.80;74.00
76168;DHT22;64927;48.214;16.378;2023-09-19T03:46:05;20.00;74.00
76168;DHT22;64927;48.214;16.378;2023-09-19T03:48:31;20.00;74.00
76168;DHT22;64927;48.214;16.378;2023-09-19T03:50:56;20.00;73.10
76168;DHT22;64927;48.214;16.378;2023-09-19T03:53:22;20.00;73.50
76168;DHT22;64927;48.214;16.378;2023-09-19T03:55:50;20.00;73.50
76168;DHT22;64927;48.214;16.378;2023-09-19T03:58:18;19.90;73.50
76168;DHT22;64927;48.214;16.378;2023-09-19T04:00:44;19.90;74.00
76168;DHT22;64927;48.214;16.378;2023-09-19T04:03:09;19.90;73.70
76168;DHT22;64927;48.214;16.378;2023-09-19T04:05:44;19.90;73.30
76168;DHT22;64927;48.214;16.378;2023-09-19T04:08:09;19.90;73.30
76168;DHT22;64927;48.214;16.378;2023-09-19T04:10:35;19.90;74.00
76168;DHT22;64927;48.214;16.378;2023-09-19T04:13:01;19.90;73.40
76168;DHT22;64927;48.214;16.378;2023-09-19T04:15:26;20.00;73.60
76168;DHT22;64927;48.214;16.378;2023-09-19T04:17:52;19.90;73.60
76168;DHT22;64927;48.214;16.378;2023-09-19T04:20:19;20.00;73.00
76168;DHT22;64927;48.214;16.378;2023-09-19T04:22:48;19.90;73.30
76168;DHT22;64927;48.214;16.378;2023-09-19T04:25:14;19.90;73.90
76168;DHT22;64927;48.214;16.378;2023-09-19T04:27:40;20.00;73.10
76168;DHT22;64927;48.214;16.378;2023-09-19T04:30:07;20.00;73.90
76168;DHT22;64927;48.214;16.378;2023-09-19T04:32:41;19.90;72.90
76168;DHT22;64927;48.214;16.378;2023-09-19T04:35:07;19.90;73.00
76168;DHT22;64927;48.214;16.378;2023-09-19T04:37:36;20.00;73.60
76168;DHT22;64927;48.214;16.378;2023-09-19T04:40:02;19.90;73.40
76168;DHT22;64927;48.214;16.378;2023-09-19T04:42:31;19.90;73.50
76168;DHT22;64927;48.214;16.378;2023-09-19T04:44:56;19.80;74.10
76168;DHT22;64927;48.214;16.378;2023-09-19T04:47:22;19.80;74.10
76168;DHT22;64927;48.214;16.378;2023-09-19T04:49:50;19.80;74.10
76168;DHT22;64927;48.214;16.378;2023-09-19T04:52:16;19.80;74.30
76168;DHT22;64927;48.214;16.378;2023-09-19T04:54:44;19.90;73.80
76168;DHT22;64927;48.214;16.378;2023-09-19T04:57:10;19.80;74.00
76168;DHT22;64927;48.214;16.378;2023-09-19T04:59:36;19.80;74.10
76168;DHT22;64927;48.214;16.378;2023-09-19T05:02:04;19.70;74.00
76168;DHT22;64927;48.214;16.378;2023-09-19T05:04:30;19.70;73.90
76168;DHT22;64927;48.214;16.378;2023-09-19T05:06:55;19.80;73.90
76168;DHT22;64927;48.214;16.378;2023-09-19T05:09:21;19.70;73.50
76168;DHT22;64927;48.214;16.378;2023-09-19T05:11:46;19.80;74.30
76168;DHT22;64927;48.214;16.378;2023-09-19T05:14:12;19.80;74.10
76168;DHT22;64927;48.214;16.378;2023-09-19T05:16:38;19.70;73.90
76168;DHT22;64927;48.214;16.378;2023-09-19T05:19:03;19.70;74.20
76168;DHT22;64927;48.214;16.378;2023-09-19T05:21:30;19.70;75.20
76168;DHT22;64927;48.214;16.378;2023-09-19T05:23:56;19.70;75.30
76168;DHT22;64927;48.214;16.378;2023-09-19T05:26:22;19.60;75.40
76168;DHT22;64927;48.214;16.378;2023-09-19T05:28:47;19.60;76.30
76168;DHT22;64927;48.214;16.378;2023-09-19T05:31:13;19.40;76.80
76168;DHT22;64927;48.214;16.378;2023-09-19T05:33:40;19.40;77.50
76168;DHT22;64927;48.214;16.378;2023-09-19T05:36:06;19.40;77.60
76168;DHT22;64927;48.214;16.378;2023-09-19T05:38:32;19.20;78.20
76168;DHT22;64927;48.214;16.378;2023-09-19T05:40:59;19.30;78.60
76168;DHT22;64927;48.214;16.378;2023-09-19T05:43:27;19.30;78.50
76168;DHT22;64927;48.214;16.378;2023-09-19T05:45:53;19.30;78.60
76168;DHT22;64927;48.214;16.378;2023-09-19T05:48:22;19.30;78.70
76168;DHT22;64927;48.214;16.378;2023-09-19T05:50:47;19.30;79.30
76168;DHT22;64927;48.214;16.378;2023-09-19T05:53:14;19.30;79.40
76168;DHT22;64927;48.214;16.378;2023-09-19T05:55:40;19.30;78.70
76168;DHT22;64927;48.214;16.378;2023-09-19T05:58:06;19.40;78.60
76168;DHT22;64927;48.214;16.378;2023-09-19T06:00:32;19.40;78.90
76168;DHT22;64927;48.214;16.378;2023-09-19T06:02:59;19.40;78.60
76168;DHT22;64927;48.214;16.378;2023-09-19T06:05:30;19.50;78.50
76168;DHT22;64927;48.214;16.378;2023-09-19T06:07:59;19.60;77.70
76168;DHT22;64927;48.214;16.378;2023-09-19T06:10:33;19.60;78.20
76168;DHT22;64927;48.214;16.378;2023-09-19T06:13:00;19.70;77.30
76168;DHT22;64927;48.214;16.378;2023-09-19T06:15:29;19.60;77.30
76168;DHT22;64927;48.214;16.378;2023-09-19T06:17:58;19.70;76.80
76168;DHT22;64927;48.214;16.378;2023-09-19T06:20:27;19.80;76.70
76168;DHT22;64927;48.214;16.378;2023-09-19T06:22:54;19.80;76.30
76168;DHT22;64927;48.214;16.378;2023-09-19T06:25:22;19.90;76.30
76168;DHT22;64927;48.214;16.378;2023-09-19T06:27:53;20.00;75.70
76168;DHT22;64927;48.214;16.378;2023-09-19T06:30:22;20.10;74.80
76168;DHT22;64927;48.214;16.378;2023-09-19T06:32:49;20.20;73.00
76168;DHT22;64927;48.214;16.378;2023-09-19T06:35:16;20.30;72.00
76168;DHT22;64927;48.214;16.378;2023-09-19T06:37:42;20.30;72.70
76168;DHT22;64927;48.214;16.378;2023-09-19T06:40:10;20.30;72.10
76168;DHT22;64927;48.214;16.378;2023-09-19T06:42:43;20.30;71.00
76168;DHT22;64927;48.214;16.378;2023-09-19T06:45:11;20.40;72.20
76168;DHT22;64927;48.214;16.378;2023-09-19T06:47:43;20.50;70.50
76168;DHT22;64927;48.214;16.378;2023-09-19T06:50:10;20.50;69.50
76168;DHT22;64927;48.214;16.378;2023-09-19T06:52:42;20.50;70.00
76168;DHT22;64927;48.214;16.378;2023-09-19T06:55:08;20.50;69.80
76168;DHT22;64927;48.214;16.378;2023-09-19T06:57:35;20.60;70.00
76168;DHT22;64927;48.214;16.378;2023-09-19T07:00:01;20.60;69.40
76168;DHT22;64927;48.214;16.378;2023-09-19T07:02:27;20.60;69.80
76168;DHT22;64927;48.214;16.378;2023-09-19T07:04:53;20.50;69.50
76168;DHT22;64927;48.214;16.378;2023-09-19T07:07:18;20.60;69.90
76168;DHT22;64927;48.214;16.378;2023-09-19T07:09:44;20.60;70.00
76168;DHT22;64927;48.214;16.378;2023-09-19T07:12:09;20.60;69.90
76168;DHT22;64927;48.214;16.378;2023-09-19T07:14:37;20.70;69.00
76168;DHT22;64927;48.214;16.378;2023-09-19T07:17:03;20.80;69.00
76168;DHT22;64927;48.214;16.378;2023-09-19T07:19:29;20.90;68.30
76168;DHT22;64927;48.214;16.378;2023-09-19T07:21:56;20.90;68.60
76168;DHT22;64927;48.214;16.378;2023-09-19T07:24:27;21.10;68.60
76168;DHT22;64927;48.214;16.378;2023-09-19T07:26:55;21.10;67.80
76168;DHT22;64927;48.214;16.378;2023-09-19T07:29:21;21.20;67.20
76168;DHT22;64927;48.214;16.378;2023-09-19T07:31:46;21.20;67.10
76168;DHT22;64927;48.214;16.378;2023-09-19T07:34:12;21.00;67.90
76168;DHT22;64927;48.214;16.378;2023-09-19T07:36:39;21.10;67.30
76168;DHT22;64927;48.214;16.378;2023-09-19T07:39:05;21.00;67.60
76168;DHT22;64927;48.214;16.378;2023-09-19T07:41:32;21.10;67.50
76168;DHT22;64927;48.214;16.378;2023-09-19T07:43:58;21.10;67.30
76168;DHT22;64927;48.214;16.378;2023-09-19T07:46:24;21.10;66.90
76168;DHT22;64927;48.214;16.378;2023-09-19T07:48:53;21.00;67.30
76168;DHT22;64927;48.214;16.378;2023-09-19T07:51:19;20.90;68.10
76168;DHT22;64927;48.214;16.378;2023-09-19T07:53:44;21.00;66.90
76168;DHT22;64927;48.214;16.378;2023-09-19T07:56:10;21.00;66.90
76168;DHT22;64927;48.214;16.378;2023-09-19T07:58:39;21.10;67.70
76168;DHT22;64927;48.214;16.378;2023-09-19T08:01:07;21.20;67.00
76168;DHT22;64927;48.214;16.378;2023-09-19T08:03:33;21.20;67.60
76168;DHT22;64927;48.214;16.378;2023-09-19T08:06:02;21.30;65.40
76168;DHT22;64927;48.214;16.378;2023-09-19T08:08:28;21.50;65.50
76168;DHT22;64927;48.214;16.378;2023-09-19T08:10:55;21.50;64.90
76168;DHT22;64927;48.214;16.378;2023-09-19T08:13:22;21.60;64.70
76168;DHT22;64927;48.214;16.378;2023-09-19T08:15:51;21.60;65.10
76168;DHT22;64927;48.214;16.378;2023-09-19T08:18:18;21.70;64.70
76168;DHT22;64927;48.214;16.378;2023-09-19T08:20:49;21.90;63.90
76168;DHT22;64927;48.214;16.378;2023-09-19T08:23:19;21.90;63.50
76168;DHT22;64927;48.214;16.378;2023-09-19T08:25:47;22.00;64.00
76168;DHT22;64927;48.214;16.378;2023-09-19T08:28:13;22.20;63.60
76168;DHT22;64927;48.214;16.378;2023-09-19T08:30:45;22.30;63.10
76168;DHT22;64927;48.214;16.378;2023-09-19T08:33:11;22.40;62.80
76168;DHT22;64927;48.214;16.378;2023-09-19T08:35:37;22.40;62.60
76168;DHT22;64927;48.214;16.378;2023-09-19T08:38:05;22.30;62.20
76168;DHT22;64927;48.214;16.378;2023-09-19T08:40:32;22.50;62.50
76168;DHT22;64927;48.214;16.378;2023-09-19T08:42:59;22.60;61.20
76168;DHT22;64927;48.214;16.378;2023-09-19T08:45:26;22.60;61.40
76168;DHT22;64927;48.214;16.378;2023-09-19T08:48:27;22.60;61.20
76168;DHT22;64927;48.214;16.378;2023-09-19T08:51:07;22.50;60.80
76168;DHT22;64927;48.214;16.378;2023-09-19T08:53:43;22.40;61.20
76168;DHT22;64927;48.214;16.378;2023-09-19T08:56:17;22.30;60.70
76168;DHT22;64927;48.214;16.378;2023-09-19T08:58:48;22.10;61.70
76168;DHT22;64927;48.214;16.378;2023-09-19T09:01:15;22.10;62.60
76168;DHT22;64927;48.214;16.378;2023-09-19T09:03:53;22.00;61.70
76168;DHT22;64927;48.214;16.378;2023-09-19T09:06:20;22.20;62.20
76168;DHT22;64927;48.214;16.378;2023-09-19T09:08:46;22.20;62.00
76168;DHT22;64927;48.214;16.378;2023-09-19T09:11:15;22.10;61.50
76168;DHT22;64927;48.214;16.378;2023-09-19T09:13:43;22.10;61.70
76168;DHT22;64927;48.214;16.378;2023-09-19T09:16:10;22.20;62.10
76168;DHT22;64927;48.214;16.378;2023-09-19T09:18:39;22.20;61.40
76168;DHT22;64927;48.214;16.378;2023-09-19T09:21:04;22.10;61.50
76168;DHT22;64927;48.214;16.378;2023-09-19T09:23:30;22.00;61.40
76168;DHT22;64927;48.214;16.378;2023-09-19T09:25:58;21.90;62.20
76168;DHT22;64927;48.214;16.378;2023-09-19T09:28:29;21.90;62.30
76168;DHT22;64927;48.214;16.378;2023-09-19T09:30:56;22.00;62.40
76168;DHT22;64927;48.214;16.378;2023-09-19T09:33:23;22.00;62.00
76168;DHT22;64927;48.214;16.378;2023-09-19T09:38:46;22.10;61.30
76168;DHT22;64927;48.214;16.378;2023-09-19T09:41:15;22.20;61.50
76168;DHT22;64927;48.214;16.378;2023-09-19T09:43:53;22.40;61.20
76168;DHT22;64927;48.214;16.378;2023-09-19T09:46:22;22.60;60.30
76168;DHT22;64927;48.214;16.378;2023-09-19T09:51:40;23.20;58.30
76168;DHT22;64927;48.214;16.378;2023-09-19T09:54:14;23.30;58.90
76168;DHT22;64927;48.214;16.378;2023-09-19T09:56:57;23.30;57.60
76168;DHT22;64927;48.214;16.378;2023-09-19T09:59:51;23.50;57.10
76168;DHT22;64927;48.214;16.378;2023-09-19T10:02:34;23.80;56.90
76168;DHT22;64927;48.214;16.378;2023-09-19T10:05:20;24.00;56.30
76168;DHT22;64927;48.214;16.378;2023-09-19T10:07:52;24.30;54.90
76168;DHT22;64927;48.214;16.378;2023-09-19T10:10:34;24.30;54.20
76168;DHT22;64927;48.214;16.378;2023-09-19T10:13:10;24.40;53.40
76168;DHT22;64927;48.214;16.378;2023-09-19T10:15:43;24.50;54.50
76168;DHT22;64927;48.214;16.378;2023-09-19T10:18:16;24.60;53.80
76168;DHT22;64927;48.214;16.378;2023-09-19T10:20:45;24.50;53.00
76168;DHT22;64927;48.214;16.378;2023-09-19T10:23:17;24.50;52.80
76168;DHT22;64927;48.214;16.378;2023-09-19T10:25:48;24.60;53.10
76168;DHT22;64927;48.214;16.378;2023-09-19T10:28:15;24.70;53.10
76168;DHT22;64927;48.214;16.378;2023-09-19T10:30:46;24.70;52.00
76168;DHT22;64927;48.214;16.378;2023-09-19T10:33:20;24.60;53.20
76168;DHT22;64927;48.214;16.378;2023-09-19T10:35:48;24.70;52.70
76168;DHT22;64927;48.214;16.378;2023-09-19T10:38:17;24.70;53.20
76168;DHT22;64927;48.214;16.378;2023-09-19T10:40:50;24.60;53.00
76168;DHT22;64927;48.214;16.378;2023-09-19T10:43:17;24.70;53.40
76168;DHT22;64927;48.214;16.378;2023-09-19T10:45:53;24.90;53.00
76168;DHT22;64927;48.214;16.378;2023-09-19T10:48:24;25.00;52.70
76168;DHT22;64927;48.214;16.378;2023-09-19T10:51:18;25.10;52.30
76168;DHT22;64927;48.214;16.378;2023-09-19T10:53:52;25.30;51.10
76168;DHT22;64927;48.214;16.378;2023-09-19T10:56:24;25.40;51.90
76168;DHT22;64927;48.214;16.378;2023-09-19T10:59:08;25.50;51.30
76168;DHT22;64927;48.214;16.378;2023-09-19T11:02:22;25.30;50.30
76168;DHT22;64927;48.214;16.378;2023-09-19T11:04:49;25.40;50.80
76168;DHT22;64927;48.214;16.378;2023-09-19T11:07:15;25.50;50.90
76168;DHT22;64927;48.214;16.378;2023-09-19T11:09:50;25.50;50.40
76168;DHT22;64927;48.214;16.378;2023-09-19T11:14:57;25.50;50.00
76168;DHT22;64927;48.214;16.378;2023-09-19T11:17:33;25.60;50.80
76168;DHT22;64927;48.214;16.378;2023-09-19T11:25:43;26.00;48.50
76168;DHT22;64927;48.214;16.378;2023-09-19T11:30:45;25.70;48.50
76168;DHT22;64927;48.214;16.378;2023-09-19T11:36:16;25.50;49.70
76168;DHT22;64927;48.214;16.378;2023-09-19T11:43:50;25.50;50.10
76168;DHT22;64927;48.214;16.378;2023-09-19T11:46:17;25.50;49.50
76168;DHT22;64927;48.214;16.378;2023-09-19T11:48:48;25.60;48.80
76168;DHT22;64927;48.214;16.378;2023-09-19T11:51:15;25.60;48.10
76168;DHT22;64927;48.214;16.378;2023-09-19T11:53:49;25.60;48.40
76168;DHT22;64927;48.214;16.378;2023-09-19T11:56:24;25.70;47.70
76168;DHT22;64927;48.214;16.378;2023-09-19T11:58:53;25.90;47.20
76168;DHT22;64927;48.214;16.378;2023-09-19T12:01:42;25.90;47.00
76168;DHT22;64927;48.214;16.378;2023-09-19T12:04:16;25.90;47.50
76168;DHT22;64927;48.214;16.378;2023-09-19T12:06:56;25.80;47.30
76168;DHT22;64927;48.214;16.378;2023-09-19T12:09:22;25.60;47.70
76168;DHT22;64927;48.214;16.378;2023-09-19T12:11:48;25.50;48.90
76168;DHT22;64927;48.214;16.378;2023-09-19T12:14:24;25.40;49.40
76168;DHT22;64927;48.214;16.378;2023-09-19T12:16:57;25.60;48.50
76168;DHT22;64927;48.214;16.378;2023-09-19T12:19:25;25.60;47.90
76168;DHT22;64927;48.214;16.378;2023-09-19T12:21:55;25.70;47.90
76168;DHT22;64927;48.214;16.378;2023-09-19T12:24:24;25.70;47.00
76168;DHT22;64927;48.214;16.378;2023-09-19T12:27:00;25.60;47.40
76168;DHT22;64927;48.214;16.378;2023-09-19T12:29:30;25.70;47.30
76168;DHT22;64927;48.214;16.378;2023-09-19T12:32:02;25.80;46.40
76168;DHT22;64927;48.214;16.378;2023-09-19T12:34:30;25.80;46.80
76168;DHT22;64927;48.214;16.378;2023-09-19T12:37:15;25.80;46.90
76168;DHT22;64927;48.214;16.378;2023-09-19T12:39:47;25.90;46.00
76168;DHT22;64927;48.214;16.378;2023-09-19T12:42:24;26.00;47.00
76168;DHT22;64927;48.214;16.378;2023-09-19T12:44:53;26.10;45.00
76168;DHT22;64927;48.214;16.378;2023-09-19T12:47:22;26.20;44.50
76168;DHT22;64927;48.214;16.378;2023-09-19T12:50:12;26.50;42.60
76168;DHT22;64927;48.214;16.378;2023-09-19T12:52:48;26.50;43.90
76168;DHT22;64927;48.214;16.378;2023-09-19T12:55:24;26.60;43.90
76168;DHT22;64927;48.214;16.378;2023-09-19T12:57:58;26.80;44.20
76168;DHT22;64927;48.214;16.378;2023-09-19T13:00:43;26.80;44.00
76168;DHT22;64927;48.214;16.378;2023-09-19T13:03:26;26.80;43.70
76168;DHT22;64927;48.214;16.378;2023-09-19T13:05:57;26.90;44.40
76168;DHT22;64927;48.214;16.378;2023-09-19T13:08:28;26.90;42.40
76168;DHT22;64927;48.214;16.378;2023-09-19T13:11:12;26.70;43.20
76168;DHT22;64927;48.214;16.378;2023-09-19T13:13:43;26.50;44.30
76168;DHT22;64927;48.214;16.378;2023-09-19T13:16:12;26.60;44.40
76168;DHT22;64927;48.214;16.378;2023-09-19T13:18:53;26.90;44.60
76168;DHT22;64927;48.214;16.378;2023-09-19T13:21:32;27.00;42.80
76168;DHT22;64927;48.214;16.378;2023-09-19T13:24:21;26.90;42.10
76168;DHT22;64927;48.214;16.378;2023-09-19T13:26:51;26.90;42.70
76168;DHT22;64927;48.214;16.378;2023-09-19T13:29:17;26.80;43.50
76168;DHT22;64927;48.214;16.378;2023-09-19T13:31:49;26.70;42.10
76168;DHT22;64927;48.214;16.378;2023-09-19T13:34:15;26.70;42.70
76168;DHT22;64927;48.214;16.378;2023-09-19T13:36:45;26.60;42.20
76168;DHT22;64927;48.214;16.378;2023-09-19T13:39:11;26.60;42.20
76168;DHT22;64927;48.214;16.378;2023-09-19T13:41:40;26.70;41.50
76168;DHT22;64927;48.214;16.378;2023-09-19T13:44:08;26.80;41.80
76168;DHT22;64927;48.214;16.378;2023-09-19T13:46:36;26.80;40.80
76168;DHT22;64927;48.214;16.378;2023-09-19T13:49:02;26.70;41.20
76168;DHT22;64927;48.214;16.378;2023-09-19T13:51:30;26.60;41.60
76168;DHT22;64927;48.214;16.378;2023-09-19T13:53:56;26.50;41.50
76168;DHT22;64927;48.214;16.378;2023-09-19T13:56:21;26.30;42.40
76168;DHT22;64927;48.214;16.378;2023-09-19T13:58:47;26.20;42.70
76168;DHT22;64927;48.214;16.378;2023-09-19T14:01:13;26.10;42.80
76168;DHT22;64927;48.214;16.378;2023-09-19T14:03:42;26.00;43.30
76168;DHT22;64927;48.214;16.378;2023-09-19T14:06:17;26.00;43.50
76168;DHT22;64927;48.214;16.378;2023-09-19T14:08:46;25.90;43.40
76168;DHT22;64927;48.214;16.378;2023-09-19T14:11:13;26.00;43.40
76168;DHT22;64927;48.214;16.378;2023-09-19T14:13:39;26.10;43.30
76168;DHT22;64927;48.214;16.378;2023-09-19T14:16:06;26.10;43.20
76168;DHT22;64927;48.214;16.378;2023-09-19T14:18:34;26.20;43.00
76168;DHT22;64927;48.214;16.378;2023-09-19T14:21:04;26.10;43.20
76168;DHT22;64927;48.214;16.378;2023-09-19T14:23:37;26.00;43.30
76168;DHT22;64927;48.214;16.378;2023-09-19T14:26:06;25.90;43.10
76168;DHT22;64927;48.214;16.378;2023-09-19T14:28:32;25.90;43.50
76168;DHT22;64927;48.214;16.378;2023-09-19T14:31:08;25.90;43.40
76168;DHT22;64927;48.214;16.378;2023-09-19T14:33:36;25.90;43.50
76168;DHT22;64927;48.214;16.378;2023-09-19T14:36:04;25.80;43.10
76168;DHT22;64927;48.214;16.378;2023-09-19T14:38:35;25.70;43.80
76168;DHT22;64927;48.214;16.378;2023-09-19T14:41:06;25.60;44.50
76168;DHT22;64927;48.214;16.378;2023-09-19T14:43:32;25.60;43.80
76168;DHT22;64927;48.214;16.378;2023-09-19T14:46:04;25.50;43.40
76168;DHT22;64927;48.214;16.378;2023-09-19T14:48:33;25.50;43.60
76168;DHT22;64927;48.214;16.378;2023-09-19T14:51:09;25.40;43.30
76168;DHT22;64927;48.214;16.378;2023-09-19T14:53:35;25.40;43.90
76168;DHT22;64927;48.214;16.378;2023-09-19T14:56:04;25.30;44.40
76168;DHT22;64927;48.214;16.378;2023-09-19T14:58:31;25.30;44.70
76168;DHT22;64927;48.214;16.378;2023-09-19T15:01:07;25.30;44.60
76168;DHT22;64927;48.214;16.378;2023-09-19T15:03:34;25.30;44.30
76168;DHT22;64927;48.214;16.378;2023-09-19T15:06:07;25.30;44.40
76168;DHT22;64927;48.214;16.378;2023-09-19T15:08:37;25.30;44.40
76168;DHT22;64927;48.214;16.378;2023-09-19T15:11:07;25.30;44.80
76168;DHT22;64927;48.214;16.378;2023-09-19T15:13:33;25.30;44.50
76168;DHT22;64927;48.214;16.378;2023-09-19T15:16:06;25.20;45.00
76168;DHT22;64927;48.214;16.378;2023-09-19T15:18:37;25.10;45.50
76168;DHT22;64927;48.214;16.378;2023-09-19T15:21:04;25.00;46.10
76168;DHT22;64927;48.214;16.378;2023-09-19T15:23:31;25.00;46.00
76168;DHT22;64927;48.214;16.378;2023-09-19T15:26:11;24.90;46.30
76168;DHT22;64927;48.214;16.378;2023-09-19T15:28:37;25.00;46.20
76168;DHT22;64927;48.214;16.378;2023-09-19T15:31:08;24.90;46.10
76168;DHT22;64927;48.214;16.378;2023-09-19T15:33:37;25.00;46.10
76168;DHT22;64927;48.214;16.378;2023-09-19T15:36:11;24.90;46.00
76168;DHT22;64927;48.214;16.378;2023-09-19T15:41:39;24.70;46.80
76168;DHT22;64927;48.214;16.378;2023-09-19T15:44:17;24.80;46.50
76168;DHT22;64927;48.214;16.378;2023-09-19T15:46:45;24.80;46.80
76168;DHT22;64927;48.214;16.378;2023-09-19T15:49:14;24.70;46.50
76168;DHT22;64927;48.214;16.378;2023-09-19T15:51:43;24.70;46.70
76168;DHT22;64927;48.214;16.378;2023-09-19T15:54:11;24.70;46.80
76168;DHT22;64927;48.214;16.378;2023-09-19T15:56:40;24.60;47.00
76168;DHT22;64927;48.214;16.378;2023-09-19T15:59:10;24.60;47.30
76168;DHT22;64927;48.214;16.378;2023-09-19T16:01:40;24.60;47.50
76168;DHT22;64927;48.214;16.378;2023-09-19T16:04:09;24.60;47.10
76168;DHT22;64927;48.214;16.378;2023-09-19T16:06:36;24.50;47.20
76168;DHT22;64927;48.214;16.378;2023-09-19T16:09:06;24.50;47.80
76168;DHT22;64927;48.214;16.378;2023-09-19T16:11:36;24.50;47.90
76168;DHT22;64927;48.214;16.378;2023-09-19T16:14:03;24.50;47.70
76168;DHT22;64927;48.214;16.378;2023-09-19T16:16:30;24.50;47.90